createdAt,value
2023-02-11T00:03:14.744Z,66
2023-02-11T00:13:14.652Z,66
2023-02-11T00:23:14.622Z,66
2023-02-11T00:33:14.612Z,67
2023-02-11T00:43:14.631Z,67
2023-02-11T00:53:14.564Z,67
2023-02-11T01:03:14.690Z,67
2023-02-11T01:13:14.614Z,68
2023-02-11T01:23:14.575Z,68
2023-02-11T01:33:14.594Z,68
2023-02-11T01:43:14.583Z,68
2023-02-11T01:53:14.540Z,69
2023-02-11T02:03:14.598Z,69
2023-02-11T02:13:14.595Z,69
2023-02-11T02:23:14.518Z,69
2023-02-11T02:33:22.279Z,69
2023-02-11T02:43:14.565Z,69
2023-02-11T02:53:14.530Z,70
2023-02-11T03:03:14.565Z,70
2023-02-11T03:13:14.566Z,70
2023-02-11T03:23:14.518Z,70
2023-02-11T03:33:14.529Z,70
2023-02-11T03:43:14.539Z,70
2023-02-11T03:53:14.490Z,71
2023-02-11T04:03:14.623Z,71
2023-02-11T04:13:14.490Z,71
2023-02-11T04:23:14.486Z,71
2023-02-11T04:33:14.536Z,71
2023-02-11T04:43:14.514Z,71
2023-02-11T04:53:14.489Z,72
2023-02-11T05:03:14.467Z,72
2023-02-11T05:13:14.517Z,72
2023-02-11T05:23:14.466Z,72
2023-02-11T05:33:14.470Z,72
2023-02-11T05:43:14.504Z,72
2023-02-11T05:53:14.444Z,73
2023-02-11T06:03:14.564Z,73
2023-02-11T06:13:14.473Z,73
2023-02-11T06:23:14.462Z,73
2023-02-11T06:33:14.437Z,73
2023-02-11T06:43:14.482Z,73
2023-02-11T06:53:14.439Z,73
2023-02-11T07:03:14.544Z,73
2023-02-11T07:13:14.449Z,73
2023-02-11T07:23:14.422Z,73
2023-02-11T07:33:14.451Z,73
2023-02-11T07:43:14.466Z,74
2023-02-11T07:53:14.422Z,74
2023-02-11T08:03:14.469Z,74
2023-02-11T08:13:14.419Z,74
2023-02-11T08:23:14.396Z,74
2023-02-11T08:33:14.416Z,74
2023-02-11T08:43:14.445Z,74
2023-02-11T08:53:14.356Z,74
2023-02-11T09:03:14.422Z,74
2023-02-11T09:13:14.391Z,74
2023-02-11T09:23:15.959Z,73
2023-02-11T09:33:14.363Z,73
2023-02-11T09:43:14.365Z,73
2023-02-11T09:53:14.342Z,73
2023-02-11T10:03:14.337Z,73
2023-02-11T10:13:14.339Z,73
2023-02-11T10:23:14.297Z,72
2023-02-11T10:33:14.339Z,71
2023-02-11T10:43:14.315Z,69
2023-02-11T10:53:14.264Z,68
2023-02-11T11:03:14.281Z,67
2023-02-11T11:13:14.274Z,66
2023-02-11T11:23:14.220Z,65
2023-02-11T11:33:14.227Z,63
2023-02-11T11:43:14.231Z,62
2023-02-11T11:53:14.150Z,61
2023-02-11T12:03:14.218Z,60
2023-02-11T12:13:14.171Z,59
2023-02-11T12:23:14.094Z,58
2023-02-11T12:33:14.121Z,57
2023-02-11T12:43:14.080Z,57
2023-02-11T12:53:14.067Z,56
2023-02-11T13:03:14.070Z,55
2023-02-11T13:13:14.063Z,55
2023-02-11T13:23:13.986Z,54
2023-02-11T13:33:14.023Z,54
2023-02-11T13:43:13.980Z,53
2023-02-11T13:53:15.969Z,52
2023-02-11T14:03:13.936Z,52
2023-02-11T14:13:13.957Z,52
2023-02-11T14:23:13.866Z,51
2023-02-11T14:33:13.892Z,51
2023-02-11T14:43:13.883Z,51
2023-02-11T14:53:13.806Z,50
2023-02-11T15:03:13.851Z,50
2023-02-11T15:13:13.844Z,50
2023-02-11T15:23:13.766Z,49
2023-02-11T15:33:13.810Z,49
2023-02-11T15:43:13.747Z,49
2023-02-11T15:53:13.705Z,49
2023-02-11T16:03:13.709Z,49
2023-02-11T16:13:13.717Z,50
2023-02-11T16:23:13.642Z,50
2023-02-11T16:33:13.932Z,51
2023-02-11T16:43:13.668Z,51
2023-02-11T16:53:13.610Z,51
2023-02-11T17:03:13.657Z,51
2023-02-11T17:13:13.613Z,52
2023-02-11T17:23:13.554Z,52
2023-02-11T17:33:13.677Z,53
2023-02-11T17:43:13.567Z,53
2023-02-11T17:53:13.520Z,53
2023-02-11T18:03:13.526Z,54
2023-02-11T18:13:13.532Z,54
2023-02-11T18:23:13.471Z,55
2023-02-11T18:33:13.520Z,55
2023-02-11T18:43:13.490Z,56
2023-02-11T18:53:13.460Z,56
2023-02-11T19:03:13.479Z,57
2023-02-11T19:13:13.468Z,57
2023-02-11T19:23:13.431Z,57
2023-02-11T19:33:13.439Z,58
2023-02-11T19:43:13.436Z,58
2023-02-11T19:53:13.392Z,58
2023-02-11T20:03:13.398Z,59
2023-02-11T20:13:13.372Z,59
2023-02-11T20:23:13.341Z,59
2023-02-11T20:33:13.360Z,60
2023-02-11T20:43:13.382Z,60
2023-02-11T20:53:13.339Z,60
2023-02-11T21:03:13.427Z,61
2023-02-11T21:13:13.330Z,61
2023-02-11T21:23:13.304Z,61
2023-02-11T21:33:13.286Z,62
2023-02-11T21:43:13.327Z,62
2023-02-11T21:53:13.267Z,63
2023-02-11T22:03:13.323Z,63
2023-02-11T22:13:13.305Z,63
2023-02-11T22:23:13.244Z,63
2023-02-11T22:33:13.272Z,64
2023-02-11T22:43:13.268Z,64
2023-02-11T22:53:13.242Z,64
2023-02-11T23:03:13.280Z,64
2023-02-11T23:13:13.239Z,65
2023-02-11T23:23:13.222Z,65
2023-02-11T23:33:13.243Z,65
2023-02-11T23:43:13.232Z,65
2023-02-11T23:53:13.209Z,66
